sensor_id;sensor_type;location;lat;lon;timestamp;pressure;altitude;pressure_sealevel;temperature;humidity
65190;BME280;51777;53.570;9.984;2023-04-20T00:01:40;102077.25;;;9.48;100.00
65190;BME280;51777;53.570;9.984;2023-04-20T00:04:06;102076.75;;;9.43;100.00
65190;BME280;51777;53.570;9.984;2023-04-20T00:06:32;102059.53;;;9.30;100.00
65190;BME280;51777;53.570;9.984;2023-04-20T00:08:58;102066.00;;;9.36;100.00
65190;BME280;51777;53.570;9.984;2023-04-20T00:11:26;102057.22;;;9.38;100.00
65190;BME280;51777;53.570;9.984;2023-04-20T00:13:51;102061.59;;;9.25;100.00
65190;BME280;51777;53.570;9.984;2023-04-20T00:16:17;102052.78;;;9.28;100.00
65190;BME280;51777;53.570;9.984;2023-04-20T00:18:45;102067.88;;;9.21;100.00
65190;BME280;51777;53.570;9.984;2023-04-20T00:21:10;102059.72;;;9.15;100.00
65190;BME280;51777;53.570;9.984;2023-04-20T00:23:36;102056.44;;;9.12;100.00
65190;BME280;51777;53.570;9.984;2023-04-20T00:26:02;102055.00;;;9.08;100.00
65190;BME280;51777;53.570;9.984;2023-04-20T00:28:28;102065.91;;;9.12;100.00
65190;BME280;51777;53.570;9.984;2023-04-20T00:30:54;102059.00;;;9.12;100.00
65190;BME280;51777;53.570;9.984;2023-04-20T00:33:19;102069.94;;;9.16;100.00
65190;BME280;51777;53.570;9.984;2023-04-20T00:35:45;102057.75;;;8.93;100.00
65190;BME280;51777;53.570;9.984;2023-04-20T00:38:10;102060.84;;;8.85;100.00
65190;BME280;51777;53.570;9.984;2023-04-20T00:40:36;102057.97;;;9.02;100.00
65190;BME280;51777;53.570;9.984;2023-04-20T00:43:09;102064.06;;;9.14;100.00
65190;BME280;51777;53.570;9.984;2023-04-20T00:45:34;102060.56;;;9.02;100.00
65190;BME280;51777;53.570;9.984;2023-04-20T00:47:59;102048.69;;;9.00;100.00
65190;BME280;51777;53.570;9.984;2023-04-20T00:50:25;102045.59;;;9.07;100.00
65190;BME280;51777;53.570;9.984;2023-04-20T00:52:51;102036.28;;;9.05;100.00
65190;BME280;51777;53.570;9.984;2023-04-20T00:55:17;102013.50;;;8.99;100.00
65190;BME280;51777;53.570;9.984;2023-04-20T00:57:43;102011.44;;;9.04;100.00
65190;BME280;51777;53.570;9.984;2023-04-20T01:00:09;102015.03;;;9.01;100.00
65190;BME280;51777;53.570;9.984;2023-04-20T01:02:35;102020.31;;;8.87;100.00
65190;BME280;51777;53.570;9.984;2023-04-20T01:05:01;102026.41;;;8.86;100.00
65190;BME280;51777;53.570;9.984;2023-04-20T01:07:26;102013.72;;;8.70;100.00
65190;BME280;51777;53.570;9.984;2023-04-20T01:09:54;102002.22;;;8.49;100.00
65190;BME280;51777;53.570;9.984;2023-04-20T01:12:19;101995.22;;;8.51;100.00
65190;BME280;51777;53.570;9.984;2023-04-20T01:14:45;102006.97;;;8.55;100.00
65190;BME280;51777;53.570;9.984;2023-04-20T01:17:10;102001.09;;;8.53;100.00
65190;BME280;51777;53.570;9.984;2023-04-20T01:19:35;101993.56;;;8.50;100.00
65190;BME280;51777;53.570;9.984;2023-04-20T01:22:01;101999.78;;;8.60;100.00
65190;BME280;51777;53.570;9.984;2023-04-20T01:24:26;102004.94;;;8.60;100.00
65190;BME280;51777;53.570;9.984;2023-04-20T01:26:52;101997.66;;;8.40;100.00
65190;BME280;51777;53.570;9.984;2023-04-20T01:29:17;101996.47;;;8.58;100.00
65190;BME280;51777;53.570;9.984;2023-04-20T01:31:42;101994.19;;;8.53;100.00
65190;BME280;51777;53.570;9.984;2023-04-20T01:34:08;102003.53;;;8.42;100.00
65190;BME280;51777;53.570;9.984;2023-04-20T01:36:34;101995.63;;;8.45;100.00
65190;BME280;51777;53.570;9.984;2023-04-20T01:39:00;101990.00;;;8.25;100.00
65190;BME280;51777;53.570;9.984;2023-04-20T01:41:25;101987.31;;;8.27;100.00
65190;BME280;51777;53.570;9.984;2023-04-20T01:43:51;101997.34;;;8.32;100.00
65190;BME280;51777;53.570;9.984;2023-04-20T01:46:16;101996.13;;;8.37;100.00
65190;BME280;51777;53.570;9.984;2023-04-20T01:48:42;101992.34;;;8.29;100.00
65190;BME280;51777;53.570;9.984;2023-04-20T01:51:07;101986.59;;;8.25;100.00
65190;BME280;51777;53.570;9.984;2023-04-20T01:53:33;101983.56;;;8.18;100.00
65190;BME280;51777;53.570;9.984;2023-04-20T01:55:59;101980.72;;;8.23;100.00
65190;BME280;51777;53.570;9.984;2023-04-20T01:58:24;101979.88;;;8.22;100.00
65190;BME280;51777;53.570;9.984;2023-04-20T02:00:53;101976.34;;;8.38;100.00
65190;BME280;51777;53.570;9.984;2023-04-20T02:03:18;101969.44;;;8.38;100.00
65190;BME280;51777;53.570;9.984;2023-04-20T02:05:43;101968.75;;;8.22;100.00
65190;BME280;51777;53.570;9.984;2023-04-20T02:08:09;101967.25;;;8.32;100.00
65190;BME280;51777;53.570;9.984;2023-04-20T02:10:35;101975.44;;;8.24;100.00
65190;BME280;51777;53.570;9.984;2023-04-20T02:13:00;101974.41;;;8.14;100.00
65190;BME280;51777;53.570;9.984;2023-04-20T02:15:26;101977.81;;;8.28;100.00
65190;BME280;51777;53.570;9.984;2023-04-20T02:17:51;101965.47;;;8.33;100.00
65190;BME280;51777;53.570;9.984;2023-04-20T02:20:17;101949.78;;;8.23;100.00
65190;BME280;51777;53.570;9.984;2023-04-20T02:22:44;101942.16;;;8.21;100.00
65190;BME280;51777;53.570;9.984;2023-04-20T02:25:10;101942.75;;;8.12;100.00
65190;BME280;51777;53.570;9.984;2023-04-20T02:27:37;101940.28;;;8.11;100.00
65190;BME280;51777;53.570;9.984;2023-04-20T02:30:02;101945.78;;;8.19;100.00
65190;BME280;51777;53.570;9.984;2023-04-20T02:32:28;101945.13;;;8.15;100.00
65190;BME280;51777;53.570;9.984;2023-04-20T02:34:53;101933.72;;;8.19;100.00
65190;BME280;51777;53.570;9.984;2023-04-20T02:37:19;101938.66;;;8.22;100.00
65190;BME280;51777;53.570;9.984;2023-04-20T02:39:44;101932.03;;;8.06;100.00
65190;BME280;51777;53.570;9.984;2023-04-20T02:42:10;101922.16;;;8.12;100.00
65190;BME280;51777;53.570;9.984;2023-04-20T02:44:35;101930.47;;;8.03;100.00
65190;BME280;51777;53.570;9.984;2023-04-20T02:47:01;101926.94;;;7.91;100.00
65190;BME280;51777;53.570;9.984;2023-04-20T02:49:26;101933.50;;;8.10;100.00
65190;BME280;51777;53.570;9.984;2023-04-20T02:51:51;101930.59;;;8.14;100.00
65190;BME280;51777;53.570;9.984;2023-04-20T02:54:17;101923.28;;;8.08;100.00
65190;BME280;51777;53.570;9.984;2023-04-20T02:56:42;101930.78;;;7.99;100.00
65190;BME280;51777;53.570;9.984;2023-04-20T02:59:07;101918.81;;;7.85;100.00
65190;BME280;51777;53.570;9.984;2023-04-20T03:01:33;101920.78;;;7.94;100.00
65190;BME280;51777;53.570;9.984;2023-04-20T03:03:58;101924.81;;;7.98;100.00
65190;BME280;51777;53.570;9.984;2023-04-20T03:06:24;101927.72;;;8.06;100.00
65190;BME280;51777;53.570;9.984;2023-04-20T03:08:50;101923.78;;;8.01;100.00
65190;BME280;51777;53.570;9.984;2023-04-20T03:11:16;101932.09;;;7.91;100.00
65190;BME280;51777;53.570;9.984;2023-04-20T03:13:41;101923.78;;;8.01;100.00
65190;BME280;51777;53.570;9.984;2023-04-20T03:16:06;101925.91;;;7.81;100.00
65190;BME280;51777;53.570;9.984;2023-04-20T03:18:32;101920.44;;;7.86;100.00
65190;BME280;51777;53.570;9.984;2023-04-20T03:20:57;101925.94;;;7.94;100.00
65190;BME280;51777;53.570;9.984;2023-04-20T03:23:23;101916.97;;;8.00;100.00
65190;BME280;51777;53.570;9.984;2023-04-20T03:25:48;101923.78;;;8.01;100.00
65190;BME280;51777;53.570;9.984;2023-04-20T03:28:14;101919.88;;;8.08;100.00
65190;BME280;51777;53.570;9.984;2023-04-20T03:30:40;101919.31;;;7.90;100.00
65190;BME280;51777;53.570;9.984;2023-04-20T03:33:06;101929.81;;;7.87;100.00
65190;BME280;51777;53.570;9.984;2023-04-20T03:35:31;101920.03;;;7.92;100.00
65190;BME280;51777;53.570;9.984;2023-04-20T03:37:57;101919.19;;;7.79;100.00
65190;BME280;51777;53.570;9.984;2023-04-20T03:40:22;101927.38;;;7.58;100.00
65190;BME280;51777;53.570;9.984;2023-04-20T03:42:48;101929.72;;;7.61;100.00
65190;BME280;51777;53.570;9.984;2023-04-20T03:45:13;101931.44;;;7.48;100.00
65190;BME280;51777;53.570;9.984;2023-04-20T03:47:39;101925.19;;;7.38;100.00
65190;BME280;51777;53.570;9.984;2023-04-20T03:50:05;101928.34;;;7.29;100.00
65190;BME280;51777;53.570;9.984;2023-04-20T03:52:30;101924.94;;;7.28;100.00
65190;BME280;51777;53.570;9.984;2023-04-20T03:54:56;101917.03;;;7.31;100.00
65190;BME280;51777;53.570;9.984;2023-04-20T03:57:21;101915.88;;;7.23;100.00
65190;BME280;51777;53.570;9.984;2023-04-20T03:59:46;101919.72;;;7.16;100.00
65190;BME280;51777;53.570;9.984;2023-04-20T04:02:12;101920.72;;;7.27;100.00
65190;BME280;51777;53.570;9.984;2023-04-20T04:04:38;101923.56;;;7.37;100.00
65190;BME280;51777;53.570;9.984;2023-04-20T04:07:03;101921.91;;;7.36;100.00
65190;BME280;51777;53.570;9.984;2023-04-20T04:09:28;101914.19;;;7.36;100.00
65190;BME280;51777;53.570;9.984;2023-04-20T04:11:54;101914.94;;;7.24;100.00
65190;BME280;51777;53.570;9.984;2023-04-20T04:14:19;101911.69;;;7.07;100.00
65190;BME280;51777;53.570;9.984;2023-04-20T04:16:45;101917.53;;;7.24;100.00
65190;BME280;51777;53.570;9.984;2023-04-20T04:19:10;101911.47;;;7.11;100.00
65190;BME280;51777;53.570;9.984;2023-04-20T04:21:35;101918.38;;;7.10;100.00
65190;BME280;51777;53.570;9.984;2023-04-20T04:24:01;101920.13;;;6.95;100.00
65190;BME280;51777;53.570;9.984;2023-04-20T04:26:27;101912.09;;;7.14;100.00
65190;BME280;51777;53.570;9.984;2023-04-20T04:28:53;101926.72;;;7.14;100.00
65190;BME280;51777;53.570;9.984;2023-04-20T04:31:19;101928.75;;;7.09;100.00
65190;BME280;51777;53.570;9.984;2023-04-20T04:33:45;101938.13;;;6.95;100.00
65190;BME280;51777;53.570;9.984;2023-04-20T04:36:11;101932.41;;;7.04;100.00
65190;BME280;51777;53.570;9.984;2023-04-20T04:38:42;101940.03;;;7.06;100.00
65190;BME280;51777;53.570;9.984;2023-04-20T04:41:11;101938.38;;;7.05;100.00
65190;BME280;51777;53.570;9.984;2023-04-20T04:43:40;101936.63;;;7.05;100.00
65190;BME280;51777;53.570;9.984;2023-04-20T04:46:09;101939.13;;;7.07;100.00
65190;BME280;51777;53.570;9.984;2023-04-20T04:48:35;101943.81;;;7.00;100.00
65190;BME280;51777;53.570;9.984;2023-04-20T04:51:02;101942.44;;;7.09;100.00
65190;BME280;51777;53.570;9.984;2023-04-20T04:53:27;101942.69;;;7.04;100.00
65190;BME280;51777;53.570;9.984;2023-04-20T04:55:52;101942.88;;;7.16;100.00
65190;BME280;51777;53.570;9.984;2023-04-20T04:58:18;101941.78;;;7.20;100.00
65190;BME280;51777;53.570;9.984;2023-04-20T05:00:43;101943.16;;;7.25;100.00
65190;BME280;51777;53.570;9.984;2023-04-20T05:03:09;101941.94;;;7.17;100.00
65190;BME280;51777;53.570;9.984;2023-04-20T05:05:34;101939.94;;;7.22;100.00
65190;BME280;51777;53.570;9.984;2023-04-20T05:07:59;101944.28;;;7.07;100.00
65190;BME280;51777;53.570;9.984;2023-04-20T05:10:25;101943.59;;;7.18;100.00
65190;BME280;51777;53.570;9.984;2023-04-20T05:12:50;101936.47;;;7.09;100.00
65190;BME280;51777;53.570;9.984;2023-04-20T05:15:17;101946.00;;;7.06;100.00
65190;BME280;51777;53.570;9.984;2023-04-20T05:17:42;101939.13;;;7.21;100.00
65190;BME280;51777;53.570;9.984;2023-04-20T05:20:08;101949.22;;;7.24;100.00
65190;BME280;51777;53.570;9.984;2023-04-20T05:22:35;101944.16;;;7.23;100.00
65190;BME280;51777;53.570;9.984;2023-04-20T05:25:01;101946.75;;;7.23;100.00
65190;BME280;51777;53.570;9.984;2023-04-20T05:27:26;101948.94;;;7.15;100.00
65190;BME280;51777;53.570;9.984;2023-04-20T05:29:51;101950.25;;;7.07;100.00
65190;BME280;51777;53.570;9.984;2023-04-20T05:32:17;101952.34;;;7.01;100.00
65190;BME280;51777;53.570;9.984;2023-04-20T05:34:42;101953.06;;;7.17;100.00
65190;BME280;51777;53.570;9.984;2023-04-20T05:37:07;101955.28;;;7.23;100.00
65190;BME280;51777;53.570;9.984;2023-04-20T05:39:33;101949.47;;;7.34;100.00
65190;BME280;51777;53.570;9.984;2023-04-20T05:41:59;101944.22;;;7.35;100.00
65190;BME280;51777;53.570;9.984;2023-04-20T05:44:24;101949.22;;;7.24;100.00
65190;BME280;51777;53.570;9.984;2023-04-20T05:46:50;101947.81;;;7.19;100.00
65190;BME280;51777;53.570;9.984;2023-04-20T05:49:15;101947.47;;;7.25;100.00
65190;BME280;51777;53.570;9.984;2023-04-20T05:51:40;101946.38;;;7.15;100.00
65190;BME280;51777;53.570;9.984;2023-04-20T05:54:07;101950.75;;;7.27;100.00
65190;BME280;51777;53.570;9.984;2023-04-20T05:56:34;101948.75;;;7.18;100.00
65190;BME280;51777;53.570;9.984;2023-04-20T05:58:59;101962.91;;;7.11;100.00
65190;BME280;51777;53.570;9.984;2023-04-20T06:01:25;101958.50;;;6.98;100.00
65190;BME280;51777;53.570;9.984;2023-04-20T06:03:50;101969.72;;;7.12;100.00
65190;BME280;51777;53.570;9.984;2023-04-20T06:06:16;101963.91;;;7.22;100.00
65190;BME280;51777;53.570;9.984;2023-04-20T06:08:41;101967.84;;;7.28;100.00
65190;BME280;51777;53.570;9.984;2023-04-20T06:11:07;101966.75;;;7.18;100.00
65190;BME280;51777;53.570;9.984;2023-04-20T06:13:32;101966.09;;;7.28;100.00
65190;BME280;51777;53.570;9.984;2023-04-20T06:15:58;101959.78;;;7.34;100.00
65190;BME280;51777;53.570;9.984;2023-04-20T06:18:23;101949.47;;;7.34;100.00
65190;BME280;51777;53.570;9.984;2023-04-20T06:20:49;101961.22;;;7.38;100.00
65190;BME280;51777;53.570;9.984;2023-04-20T06:23:14;101958.19;;;7.31;100.00
65190;BME280;51777;53.570;9.984;2023-04-20T06:25:40;101953.97;;;7.30;100.00
65190;BME280;51777;53.570;9.984;2023-04-20T06:28:06;101943.56;;;7.46;100.00
65190;BME280;51777;53.570;9.984;2023-04-20T06:30:32;101949.19;;;7.39;100.00
65190;BME280;51777;53.570;9.984;2023-04-20T06:32:59;101954.84;;;7.44;100.00
65190;BME280;51777;53.570;9.984;2023-04-20T06:35:25;101951.09;;;7.49;100.00
65190;BME280;51777;53.570;9.984;2023-04-20T06:37:51;101946.63;;;7.24;100.00
65190;BME280;51777;53.570;9.984;2023-04-20T06:40:16;101953.13;;;7.44;100.00
65190;BME280;51777;53.570;9.984;2023-04-20T06:42:41;101944.09;;;7.51;100.00
65190;BME280;51777;53.570;9.984;2023-04-20T06:45:07;101943.69;;;7.72;100.00
65190;BME280;51777;53.570;9.984;2023-04-20T06:47:33;101955.88;;;7.82;100.00
65190;BME280;51777;53.570;9.984;2023-04-20T06:50:00;101964.06;;;7.75;100.00
65190;BME280;51777;53.570;9.984;2023-04-20T06:52:26;101970.44;;;7.69;100.00
65190;BME280;51777;53.570;9.984;2023-04-20T06:54:52;101963.91;;;7.63;100.00
65190;BME280;51777;53.570;9.984;2023-04-20T06:57:18;101961.00;;;7.55;100.00
65190;BME280;51777;53.570;9.984;2023-04-20T06:59:43;101971.66;;;7.63;100.00
65190;BME280;51777;53.570;9.984;2023-04-20T07:02:08;101973.28;;;7.64;100.00
65190;BME280;51777;53.570;9.984;2023-04-20T07:04:34;101967.94;;;7.68;100.00
65190;BME280;51777;53.570;9.984;2023-04-20T07:06:59;101969.41;;;7.72;100.00
65190;BME280;51777;53.570;9.984;2023-04-20T07:09:25;101968.19;;;7.77;100.00
65190;BME280;51777;53.570;9.984;2023-04-20T07:11:52;101968.66;;;7.57;100.00
65190;BME280;51777;53.570;9.984;2023-04-20T07:14:17;101974.50;;;7.59;100.00
65190;BME280;51777;53.570;9.984;2023-04-20T07:16:43;101968.53;;;7.58;100.00
65190;BME280;51777;53.570;9.984;2023-04-20T07:19:08;101970.13;;;7.47;100.00
65190;BME280;51777;53.570;9.984;2023-04-20T07:21:34;101984.34;;;7.52;100.00
65190;BME280;51777;53.570;9.984;2023-04-20T07:24:00;101977.00;;;7.60;100.00
65190;BME280;51777;53.570;9.984;2023-04-20T07:26:26;101984.16;;;7.70;100.00
65190;BME280;51777;53.570;9.984;2023-04-20T07:28:51;101982.16;;;7.46;100.00
65190;BME280;51777;53.570;9.984;2023-04-20T07:31:17;101983.81;;;7.47;100.00
65190;BME280;51777;53.570;9.984;2023-04-20T07:33:43;101990.41;;;7.51;100.00
65190;BME280;51777;53.570;9.984;2023-04-20T07:36:09;101992.06;;;7.52;100.00
65190;BME280;51777;53.570;9.984;2023-04-20T07:38:38;101991.50;;;7.61;100.00
65190;BME280;51777;53.570;9.984;2023-04-20T07:41:07;101986.34;;;7.61;100.00
65190;BME280;51777;53.570;9.984;2023-04-20T07:43:33;101994.31;;;7.44;100.00
65190;BME280;51777;53.570;9.984;2023-04-20T07:45:58;101992.44;;;7.60;100.00
65190;BME280;51777;53.570;9.984;2023-04-20T07:48:24;101987.03;;;7.51;100.00
65190;BME280;51777;53.570;9.984;2023-04-20T07:50:49;101989.50;;;7.52;100.00
65190;BME280;51777;53.570;9.984;2023-04-20T07:53:15;101992.47;;;7.46;100.00
65190;BME280;51777;53.570;9.984;2023-04-20T07:55:40;101994.78;;;7.36;100.00
65190;BME280;51777;53.570;9.984;2023-04-20T07:58:05;101990.06;;;7.43;100.00
65190;BME280;51777;53.570;9.984;2023-04-20T08:00:31;101997.22;;;7.52;100.00
65190;BME280;51777;53.570;9.984;2023-04-20T08:02:56;102000.28;;;7.30;100.00
65190;BME280;51777;53.570;9.984;2023-04-20T08:05:22;102006.97;;;7.47;100.00
65190;BME280;51777;53.570;9.984;2023-04-20T08:07:48;102013.75;;;7.62;100.00
65190;BME280;51777;53.570;9.984;2023-04-20T08:10:14;102016.41;;;7.61;100.00
65190;BME280;51777;53.570;9.984;2023-04-20T08:12:40;102023.59;;;7.42;100.00
65190;BME280;51777;53.570;9.984;2023-04-20T08:15:07;102018.09;;;7.48;100.00
65190;BME280;51777;53.570;9.984;2023-04-20T08:17:36;102010.72;;;7.56;100.00
65190;BME280;51777;53.570;9.984;2023-04-20T08:20:01;102012.09;;;7.61;100.00
65190;BME280;51777;53.570;9.984;2023-04-20T08:22:29;102028.50;;;7.46;100.00
65190;BME280;51777;53.570;9.984;2023-04-20T08:24:56;102028.66;;;7.43;100.00
65190;BME280;51777;53.570;9.984;2023-04-20T08:27:22;102033.00;;;7.57;100.00
65190;BME280;51777;53.570;9.984;2023-04-20T08:29:48;102028.16;;;7.65;100.00
65190;BME280;51777;53.570;9.984;2023-04-20T08:32:13;102029.56;;;7.56;100.00
65190;BME280;51777;53.570;9.984;2023-04-20T08:34:39;102022.50;;;7.31;100.00
65190;BME280;51777;53.570;9.984;2023-04-20T08:37:07;102022.22;;;7.50;100.00
65190;BME280;51777;53.570;9.984;2023-04-20T08:39:33;102018.75;;;7.37;100.00
65190;BME280;51777;53.570;9.984;2023-04-20T08:41:58;102028.03;;;7.25;100.00
65190;BME280;51777;53.570;9.984;2023-04-20T08:44:24;102017.09;;;7.36;100.00
65190;BME280;51777;53.570;9.984;2023-04-20T08:46:50;102017.34;;;7.31;100.00
65190;BME280;51777;53.570;9.984;2023-04-20T08:49:18;102016.31;;;7.62;100.00
65190;BME280;51777;53.570;9.984;2023-04-20T08:51:44;102006.44;;;7.83;100.00
65190;BME280;51777;53.570;9.984;2023-04-20T08:54:11;102021.72;;;7.72;100.00
65190;BME280;51777;53.570;9.984;2023-04-20T08:56:38;102022.38;;;7.76;100.00
65190;BME280;51777;53.570;9.984;2023-04-20T08:59:04;102019.59;;;8.06;100.00
65190;BME280;51777;53.570;9.984;2023-04-20T09:01:32;102017.94;;;8.32;100.00
65190;BME280;51777;53.570;9.984;2023-04-20T09:03:59;102005.59;;;8.37;100.00
65190;BME280;51777;53.570;9.984;2023-04-20T09:06:25;102020.06;;;8.52;100.00
65190;BME280;51777;53.570;9.984;2023-04-20T09:08:50;102014.31;;;8.87;100.00
65190;BME280;51777;53.570;9.984;2023-04-20T09:11:27;102026.91;;;9.04;100.00
65190;BME280;51777;53.570;9.984;2023-04-20T09:14:01;102039.81;;;8.91;100.00
65190;BME280;51777;53.570;9.984;2023-04-20T09:16:27;102034.97;;;8.99;100.00
65190;BME280;51777;53.570;9.984;2023-04-20T09:18:54;102035.06;;;9.23;100.00
65190;BME280;51777;53.570;9.984;2023-04-20T09:21:20;102038.44;;;9.36;100.00
65190;BME280;51777;53.570;9.984;2023-04-20T09:24:05;102040.81;;;9.39;100.00
65190;BME280;51777;53.570;9.984;2023-04-20T09:26:31;102040.78;;;9.52;100.00
65190;BME280;51777;53.570;9.984;2023-04-20T09:28:59;102046.38;;;9.59;100.00
65190;BME280;51777;53.570;9.984;2023-04-20T09:31:25;102051.00;;;9.54;100.00
65190;BME280;51777;53.570;9.984;2023-04-20T09:34:01;102051.97;;;9.15;100.00
65190;BME280;51777;53.570;9.984;2023-04-20T09:36:40;102051.16;;;9.14;100.00
65190;BME280;51777;53.570;9.984;2023-04-20T09:39:11;102056.09;;;8.79;100.00
65190;BME280;51777;53.570;9.984;2023-04-20T09:41:38;102052.97;;;8.61;100.00
65190;BME280;51777;53.570;9.984;2023-04-20T09:44:05;102047.00;;;8.61;100.00
65190;BME280;51777;53.570;9.984;2023-04-20T09:46:34;102046.66;;;8.52;100.00
65190;BME280;51777;53.570;9.984;2023-04-20T09:49:02;102047.75;;;8.75;100.00
65190;BME280;51777;53.570;9.984;2023-04-20T09:51:31;102038.88;;;8.79;100.00
65190;BME280;51777;53.570;9.984;2023-04-20T09:53:58;102019.34;;;9.26;100.00
65190;BME280;51777;53.570;9.984;2023-04-20T09:56:24;102019.53;;;9.85;100.00
65190;BME280;51777;53.570;9.984;2023-04-20T09:58:51;102022.16;;;9.96;100.00
65190;BME280;51777;53.570;9.984;2023-04-20T10:01:16;102030.66;;;10.22;100.00
65190;BME280;51777;53.570;9.984;2023-04-20T10:03:43;102027.81;;;11.18;100.00
65190;BME280;51777;53.570;9.984;2023-04-20T10:06:25;102038.84;;;13.33;100.00
65190;BME280;51777;53.570;9.984;2023-04-20T10:08:53;102045.94;;;13.81;100.00
65190;BME280;51777;53.570;9.984;2023-04-20T10:13:55;102055.66;;;11.82;100.00
65190;BME280;51777;53.570;9.984;2023-04-20T10:16:20;102057.78;;;11.09;100.00
65190;BME280;51777;53.570;9.984;2023-04-20T10:21:21;102062.50;;;11.38;100.00
65190;BME280;51777;53.570;9.984;2023-04-20T10:23:51;102057.81;;;11.32;100.00
65190;BME280;51777;53.570;9.984;2023-04-20T10:26:16;102054.25;;;11.10;100.00
65190;BME280;51777;53.570;9.984;2023-04-20T10:28:42;102049.09;;;11.10;100.00
65190;BME280;51777;53.570;9.984;2023-04-20T10:31:10;102045.91;;;11.40;100.00
65190;BME280;51777;53.570;9.984;2023-04-20T10:33:55;102054.41;;;11.20;100.00
65190;BME280;51777;53.570;9.984;2023-04-20T10:36:26;102058.47;;;10.43;100.00
65190;BME280;51777;53.570;9.984;2023-04-20T10:38:52;102054.16;;;10.66;100.00
65190;BME280;51777;53.570;9.984;2023-04-20T10:41:18;102047.22;;;10.55;100.00
65190;BME280;51777;53.570;9.984;2023-04-20T10:43:43;102050.81;;;10.41;100.00
65190;BME280;51777;53.570;9.984;2023-04-20T10:46:22;102048.91;;;10.67;100.00
65190;BME280;51777;53.570;9.984;2023-04-20T10:48:51;102055.47;;;11.17;100.00
65190;BME280;51777;53.570;9.984;2023-04-20T10:51:17;102053.22;;;11.24;100.00
65190;BME280;51777;53.570;9.984;2023-04-20T10:53:43;102056.03;;;11.43;100.00
65190;BME280;51777;53.570;9.984;2023-04-20T10:56:08;102039.81;;;11.30;100.00
65190;BME280;51777;53.570;9.984;2023-04-20T10:58:35;102040.25;;;11.80;100.00
65190;BME280;51777;53.570;9.984;2023-04-20T11:01:03;102042.69;;;11.93;100.00
65190;BME280;51777;53.570;9.984;2023-04-20T11:03:30;102036.97;;;11.11;100.00
65190;BME280;51777;53.570;9.984;2023-04-20T11:05:57;102046.63;;;11.09;100.00
65190;BME280;51777;53.570;9.984;2023-04-20T11:08:39;102054.41;;;11.42;100.00
65190;BME280;51777;53.570;9.984;2023-04-20T11:11:15;102036.81;;;10.79;100.00
65190;BME280;51777;53.570;9.984;2023-04-20T11:13:41;102035.22;;;11.23;100.00
65190;BME280;51777;53.570;9.984;2023-04-20T11:16:14;102042.84;;;11.46;100.00
65190;BME280;51777;53.570;9.984;2023-04-20T11:18:53;102038.84;;;11.54;100.00
65190;BME280;51777;53.570;9.984;2023-04-20T11:21:20;102036.25;;;11.54;100.00
65190;BME280;51777;53.570;9.984;2023-04-20T11:23:46;102035.69;;;11.05;100.00
65190;BME280;51777;53.570;9.984;2023-04-20T11:26:12;102036.16;;;11.44;100.00
65190;BME280;51777;53.570;9.984;2023-04-20T11:28:37;102036.31;;;11.74;100.00
65190;BME280;51777;53.570;9.984;2023-04-20T11:31:03;102041.88;;;11.81;100.00
65190;BME280;51777;53.570;9.984;2023-04-20T11:33:30;102049.28;;;11.63;100.00
65190;BME280;51777;53.570;9.984;2023-04-20T11:35:56;102048.72;;;11.15;100.00
65190;BME280;51777;53.570;9.984;2023-04-20T11:38:27;102045.03;;;10.73;100.00
65190;BME280;51777;53.570;9.984;2023-04-20T11:40:53;102041.72;;;10.59;100.00
65190;BME280;51777;53.570;9.984;2023-04-20T11:43:18;102044.72;;;10.53;100.00
65190;BME280;51777;53.570;9.984;2023-04-20T11:45:44;102036.16;;;10.42;100.00
65190;BME280;51777;53.570;9.984;2023-04-20T11:48:09;102037.16;;;10.39;100.00
65190;BME280;51777;53.570;9.984;2023-04-20T11:50:34;102030.06;;;10.65;100.00
65190;BME280;51777;53.570;9.984;2023-04-20T11:53:01;102028.03;;;10.93;100.00
65190;BME280;51777;53.570;9.984;2023-04-20T11:55:27;102037.53;;;10.81;100.00
65190;BME280;51777;53.570;9.984;2023-04-20T11:57:52;102035.13;;;10.55;100.00
65190;BME280;51777;53.570;9.984;2023-04-20T12:00:18;102036.50;;;10.48;100.00
65190;BME280;51777;53.570;9.984;2023-04-20T12:02:43;102041.31;;;10.18;100.00
65190;BME280;51777;53.570;9.984;2023-04-20T12:05:09;102037.25;;;10.26;100.00
65190;BME280;51777;53.570;9.984;2023-04-20T12:07:36;102033.88;;;10.13;100.00
65190;BME280;51777;53.570;9.984;2023-04-20T12:10:01;102040.66;;;10.27;100.00
65190;BME280;51777;53.570;9.984;2023-04-20T12:12:27;102041.59;;;10.26;100.00
65190;BME280;51777;53.570;9.984;2023-04-20T12:14:52;102039.25;;;10.10;100.00
65190;BME280;51777;53.570;9.984;2023-04-20T12:17:17;102035.91;;;9.97;100.00
65190;BME280;51777;53.570;9.984;2023-04-20T12:19:43;102045.94;;;9.89;100.00
65190;BME280;51777;53.570;9.984;2023-04-20T12:22:08;102046.13;;;9.62;100.00
65190;BME280;51777;53.570;9.984;2023-04-20T12:24:34;102042.53;;;9.52;100.00
65190;BME280;51777;53.570;9.984;2023-04-20T12:26:59;102041.28;;;9.70;100.00
65190;BME280;51777;53.570;9.984;2023-04-20T12:29:25;102039.06;;;9.77;100.00
65190;BME280;51777;53.570;9.984;2023-04-20T12:31:51;102050.16;;;9.66;100.00
65190;BME280;51777;53.570;9.984;2023-04-20T12:34:16;102047.16;;;9.72;100.00
65190;BME280;51777;53.570;9.984;2023-04-20T12:36:41;102055.31;;;9.66;100.00
65190;BME280;51777;53.570;9.984;2023-04-20T12:39:08;102055.22;;;9.67;100.00
65190;BME280;51777;53.570;9.984;2023-04-20T12:41:35;102055.78;;;9.47;100.00
65190;BME280;51777;53.570;9.984;2023-04-20T12:44:01;102047.50;;;9.42;100.00
65190;BME280;51777;53.570;9.984;2023-04-20T12:46:26;102055.31;;;9.66;100.00
65190;BME280;51777;53.570;9.984;2023-04-20T12:48:52;102046.13;;;9.62;100.00